Fredericksburg, VA (22401)

1:14 PM EDT on September 30, 2016 (GMT -0400)
Kingswood | | Change Station

Elev 249 ft 38.28 °N, 77.51 °W | Updated 11 seconds ago

Overcast
Overcast
66.4 °F
Feels Like 66.4 °F
N
3.7
Wind Variable Wind from ESE

Today
High -- | Low -- °F
--% Chance of Precip.
Yesterday
High -- | Low -- °F
Precip. -- in
Pressure 30.12 in
Visibility 7.0 miles
Clouds Overcast 800 ft
Dew Point 64 °F
Humidity 91%
Rainfall 0.14 in
Snow Depth Not available.
7:05 AM 6:53 PM
Waning Crescent, 0% visible
METAR KEZF 301655Z AUTO 05006KT 7SM OVC008 20/20 A3012 RMK AO2 T01950195
Pressure 30.12 in
Visibility 7.0 miles
Clouds Overcast 800 ft
Dew Point 64 °F
Humidity 91%
Rainfall 0.14 in
Snow Depth Not available.
7:05 AM 6:53 PM
Waning Crescent, 0% visible
METAR KEZF 301655Z AUTO 05006KT 7SM OVC008 20/20 A3012 RMK AO2 T01950195

10-Day Weather Forecast

Almanac

Astronomy

Sep. 30, 2016 Rise Set
Actual Time
Civil Twilight
Nautical Twilight
Astronomical Twilight
Moon
Length of Visible Light
Length of Day
Tomorrow will be .
, % of the Moon is Illuminated

Today's Extremes

State Highs State Lows

Community

WunderPhotos

Upload Photos

1,942,752 photos uploaded!

WunderBlog® & News

Nearby

Air Quality

  Air Quality AQ Index Pollutant
Not available.

Snow Depth

Station Depth Elevation

Earthquake Activity

City Distance Mag. Time & Date
Minimum magnitude displayed is 2.5.

Coastal Water Temperatures

Place Temperature

Stations

Nearby Weather Stations

Station Location Temp. Windchill Dew Point Humidity Wind Precip. Elev Updated Type
                   

Watches & Warnings

There are currently no watches in effect.